Aeroporto :
LOGIN :

Iscrizione | Disclaimer

   EN    FR    IT 

 










Sommario :    VFR   VFR Marginale   IFR   IFR Intensivo   IFR Molto Intensivo
Visibilità : 
Base nubi : 
>= 8 km
>= 3000ft
5 / 8 km
1000 / 3000 ft
1500m / 5 km
500 / 1000 ft
800 / 1500m
200 / 500 ft
< 800m
< 200 ft
Simboli :   Temporali  Nebbia  Neve Forte  Precipitazioni Forti  Vento > 20 kt
SIGMETs :   Varie  Temporali  Ghiacco  Turbolenza  Onda orograficha  Ceneri Vulcaniche






- Altitudine del aeroporto : 247 ft
- Codice IATA : BLL


EKBI - Billund

ULTIMO METAR :
  • 222020Z AUTO 22010KT 9999 FEW058/// 11/08 Q1003

METARs OBSOLETI :
  • 221950Z AUTO 22011KT 9999 NCD 11/08 Q1003
  • 221920Z 22013KT CAVOK 11/08 Q1003
  • 221850Z 23013KT 9999 BKN016 12/10 Q1003
  • 221820Z 23014KT 200V260 9999 BKN016 12/11 Q1003
  • 221750Z 22013KT 190V250 9999 FEW013CB BKN046 12/10 Q1003

TAF TAF EKBI
Valido dal 22 a 18 ore il 23 a 18 ore UTC


221702Z 2218/2318 22015KT 9999 BKN020
TEMPO 2218/2318 BKN010TCU
BECMG 2304/2306 23005KT



MetMap, La meteo Aeronautica in un colpo d'occhio ! - Copyright ORBIFLY Dicembre 2007 - Disclaimer

ORBIFLY MET'MAP TEAM :

Programmazione e sviluppo : Alexandra Zaïnal
Concezione : Baudouin d'Aumeries
Aiuto per la programmazione : Marc-Olivier Méhu
Supporto tecnico e logistico : Manuel Goepfert
Aiuto per la traduzione : Arnaldo La Scala

Contatto : metmap@orbifly.com




FONTI E CREDITI :

   NOAA